Main page
METAR-TAF:

METAR-TAF

Airports :

Zahedan Airport

Zahedan, Iran

latitude: 29-28N, longitude: 060-53E, elevation: 1370 m

Current weather observation

The report was made 19 minutes ago, at 17:30 UTC
Wind 6 kt from the South
Temperature 13°C
Humidity 35%
Pressure 1025 hPa
Visibility 10 km or more
no clouds below 1500 m and no cumulonimbus

METAR: OIZH 151730Z 18006KT CAVOK 13/M02 Q1024 A3026

Time: 21:19 (17:49 UTC)

Forecast

The report was made 6 hours and 9 minutes ago, at 11:40 UTC
Forecast valid from 15 at 12 UTC to 16 at 18 UTC
Wind 8 kt from the East/Southeast
Visibility: 8000 m
Few clouds at a height of 4000 ft
Temporary
from 15 at 12 UTC to 15 at 16 UTC
Wind 17 kt from the East/Southeast
Few clouds at a height of 3500 ft
Broken clouds at a height of 10000 ft

TAF: OIZH 151140Z 1512/1618 12004MPS 8000 FEW040 TEMPO 1512/1516 12009MPS FEW035 BKN100

Weather observations and forecasts of more than 4000 airports (METAR and TAF reports).

The available stations are represented by yellow and red dots on the map.

Hover mouse over dot to see the name of the station.

Then click to see weather observations and forecasts.

To change the map : click on the green buttons with a black cross to zoom in, on the green button with a dash to zoom out, or on the green arrows for adjacent maps.


METAR-TAF: